Portada
METAR-TAF:

METAR-TAF

Aeroports :

Pittsburg, Kansas, Estats Units d'Amèrica

latitud: 37-26-58N, longitud: 094-43-52W, altitud: 290 m

Observació

L'informe es va fer fa 37 minuts, a les 07:15 UTC
Vent 5 kt del Sud/Sud-Oest
Temperatura 21°C
Humitat 83%
Pressió 1013 hPa
Visibilitat: 16.1 km
Cel clar

METAR: KPTS 130715Z AUTO 20005KT 10SM CLR 21/18 A2990 RMK AO2 T02130176 PWINO

Hora: 02:52 (07:52 UTC)


TAF: manca

Observacions i pronòstics meteorològics de més de 4000 aeroports (METAR i TAF).

Les estacions disponibles són els punts grocs i vermells al mapa.

Posi el ratolí al punt desitjat per veure el nom de l'estació.

Feu clic per veure les observacions i els pronòstics meteorològics.

Per canviar el mapa: feu clic els botons verds amb una creu de color negre per apropar; al botó verd amb un guió per allunyar la imatge; o en les fletxes verdes per a mapes adjacents.


METAR-TAF: